sensor_id;sensor_type;location;lat;lon;timestamp;pressure;altitude;pressure_sealevel;temperature;humidity
80712;BME280;70078;51.596;5.678;2023-08-30T00:00:58;100722.47;;;13.23;74.77
80712;BME280;70078;51.596;5.678;2023-08-30T00:03:23;100743.44;;;13.35;75.36
80712;BME280;70078;51.596;5.678;2023-08-30T00:05:49;100758.22;;;13.45;74.77
80712;BME280;70078;51.596;5.678;2023-08-30T00:08:14;100742.22;;;13.22;75.28
80712;BME280;70078;51.596;5.678;2023-08-30T00:10:44;100750.94;;;13.24;75.86
80712;BME280;70078;51.596;5.678;2023-08-30T00:13:09;100765.91;;;13.33;75.80
80712;BME280;70078;51.596;5.678;2023-08-30T00:15:35;100689.81;;;12.90;76.22
80712;BME280;70078;51.596;5.678;2023-08-30T00:18:00;100726.22;;;13.14;75.80
80712;BME280;70078;51.596;5.678;2023-08-30T00:20:26;100747.88;;;13.27;75.59
80712;BME280;70078;51.596;5.678;2023-08-30T00:22:52;100687.72;;;12.86;75.28
80712;BME280;70078;51.596;5.678;2023-08-30T00:25:17;100690.94;;;12.81;75.01
80712;BME280;70078;51.596;5.678;2023-08-30T00:27:43;100775.72;;;13.26;75.34
80712;BME280;70078;51.596;5.678;2023-08-30T00:30:09;100734.44;;;12.98;76.01
80712;BME280;70078;51.596;5.678;2023-08-30T00:32:35;100716.06;;;12.80;75.73
80712;BME280;70078;51.596;5.678;2023-08-30T00:35:01;100739.19;;;12.96;76.31
80712;BME280;70078;51.596;5.678;2023-08-30T00:37:26;100716.91;;;12.81;76.36
80712;BME280;70078;51.596;5.678;2023-08-30T00:39:51;100733.91;;;12.88;76.37
80712;BME280;70078;51.596;5.678;2023-08-30T00:42:17;100724.41;;;12.85;75.94
80712;BME280;70078;51.596;5.678;2023-08-30T00:44:42;100734.09;;;12.86;76.09
80712;BME280;70078;51.596;5.678;2023-08-30T00:47:08;100703.94;;;12.69;76.64
80712;BME280;70078;51.596;5.678;2023-08-30T00:49:33;100708.97;;;12.72;76.55
80712;BME280;70078;51.596;5.678;2023-08-30T00:52:05;100690.09;;;12.51;76.51
80712;BME280;70078;51.596;5.678;2023-08-30T00:54:32;100699.78;;;12.52;77.25
80712;BME280;70078;51.596;5.678;2023-08-30T00:57:00;100763.38;;;12.88;78.25
80712;BME280;70078;51.596;5.678;2023-08-30T00:59:26;100724.28;;;12.64;79.04
80712;BME280;70078;51.596;5.678;2023-08-30T01:01:52;100748.13;;;12.73;79.04
80712;BME280;70078;51.596;5.678;2023-08-30T01:04:19;100687.19;;;12.38;78.79
80712;BME280;70078;51.596;5.678;2023-08-30T01:06:44;100724.09;;;12.65;78.48
80712;BME280;70078;51.596;5.678;2023-08-30T01:09:10;100704.50;;;12.50;77.74
80712;BME280;70078;51.596;5.678;2023-08-30T01:12:07;100736.38;;;12.74;77.99
80712;BME280;70078;51.596;5.678;2023-08-30T01:17:09;100671.09;;;12.23;78.14
80712;BME280;70078;51.596;5.678;2023-08-30T01:19:49;100705.59;;;12.41;78.90
80712;BME280;70078;51.596;5.678;2023-08-30T01:25:31;100660.97;;;12.18;78.17
80712;BME280;70078;51.596;5.678;2023-08-30T01:27:58;100736.84;;;12.63;78.45
80712;BME280;70078;51.596;5.678;2023-08-30T01:30:27;100662.81;;;12.18;78.64
80712;BME280;70078;51.596;5.678;2023-08-30T01:32:53;100681.28;;;12.28;78.43
80712;BME280;70078;51.596;5.678;2023-08-30T01:35:21;100705.69;;;12.47;78.20
80712;BME280;70078;51.596;5.678;2023-08-30T01:37:48;100678.59;;;12.28;77.83
80712;BME280;70078;51.596;5.678;2023-08-30T01:40:16;100660.66;;;12.13;78.23
80712;BME280;70078;51.596;5.678;2023-08-30T01:42:43;100651.13;;;11.96;78.13
80712;BME280;70078;51.596;5.678;2023-08-30T01:45:11;100648.34;;;11.89;77.97
80712;BME280;70078;51.596;5.678;2023-08-30T01:47:39;100666.16;;;11.97;78.13
80712;BME280;70078;51.596;5.678;2023-08-30T01:50:06;100710.00;;;12.34;77.69
80712;BME280;70078;51.596;5.678;2023-08-30T01:52:32;100662.97;;;12.02;78.08
80712;BME280;70078;51.596;5.678;2023-08-30T01:54:58;100694.09;;;12.17;78.14
80712;BME280;70078;51.596;5.678;2023-08-30T01:57:25;100678.16;;;12.01;78.14
80712;BME280;70078;51.596;5.678;2023-08-30T01:59:50;100695.09;;;12.16;77.98
80712;BME280;70078;51.596;5.678;2023-08-30T02:02:15;100705.38;;;12.28;77.93
80712;BME280;70078;51.596;5.678;2023-08-30T02:04:41;100663.66;;;11.96;78.48
80712;BME280;70078;51.596;5.678;2023-08-30T02:07:29;100700.09;;;12.19;79.35
80712;BME280;70078;51.596;5.678;2023-08-30T02:10:00;100731.41;;;12.34;79.85
80712;BME280;70078;51.596;5.678;2023-08-30T02:12:37;100707.81;;;12.14;79.45
80712;BME280;70078;51.596;5.678;2023-08-30T02:15:05;100722.72;;;12.32;79.63
80712;BME280;70078;51.596;5.678;2023-08-30T02:17:32;100645.84;;;11.88;79.64
80712;BME280;70078;51.596;5.678;2023-08-30T02:19:59;100667.81;;;11.98;79.52
80712;BME280;70078;51.596;5.678;2023-08-30T02:22:26;100680.59;;;12.11;79.54
80712;BME280;70078;51.596;5.678;2023-08-30T02:24:52;100715.88;;;12.29;79.41
80712;BME280;70078;51.596;5.678;2023-08-30T02:27:17;100643.69;;;11.83;79.71
80712;BME280;70078;51.596;5.678;2023-08-30T02:29:43;100627.88;;;11.74;80.10
80712;BME280;70078;51.596;5.678;2023-08-30T02:32:08;100680.28;;;12.06;80.08
80712;BME280;70078;51.596;5.678;2023-08-30T02:34:33;100660.94;;;11.81;80.01
80712;BME280;70078;51.596;5.678;2023-08-30T02:37:04;100622.94;;;11.62;80.14
80712;BME280;70078;51.596;5.678;2023-08-30T02:39:29;100676.38;;;11.93;79.60
80712;BME280;70078;51.596;5.678;2023-08-30T02:41:58;100617.31;;;11.57;79.38
80712;BME280;70078;51.596;5.678;2023-08-30T02:44:23;100673.59;;;11.87;79.23
80712;BME280;70078;51.596;5.678;2023-08-30T02:46:49;100623.09;;;11.61;78.80
80712;BME280;70078;51.596;5.678;2023-08-30T02:49:14;100664.25;;;11.83;79.08
80712;BME280;70078;51.596;5.678;2023-08-30T02:51:42;100635.13;;;11.65;79.29
80712;BME280;70078;51.596;5.678;2023-08-30T02:54:08;100664.25;;;11.83;79.25
80712;BME280;70078;51.596;5.678;2023-08-30T02:56:33;100669.63;;;11.83;79.55
80712;BME280;70078;51.596;5.678;2023-08-30T02:58:59;100636.91;;;11.73;79.19
80712;BME280;70078;51.596;5.678;2023-08-30T03:01:24;100676.16;;;12.03;79.60
80712;BME280;70078;51.596;5.678;2023-08-30T03:03:50;100616.34;;;11.73;79.69
80712;BME280;70078;51.596;5.678;2023-08-30T03:06:15;100668.25;;;12.10;79.70
80712;BME280;70078;51.596;5.678;2023-08-30T03:08:41;100634.44;;;11.94;80.94
80712;BME280;70078;51.596;5.678;2023-08-30T03:11:10;100642.09;;;11.97;80.53
80712;BME280;70078;51.596;5.678;2023-08-30T03:13:36;100639.41;;;11.97;80.29
80712;BME280;70078;51.596;5.678;2023-08-30T03:16:12;100599.44;;;11.81;80.43
80712;BME280;70078;51.596;5.678;2023-08-30T03:18:38;100630.38;;;11.98;80.27
80712;BME280;70078;51.596;5.678;2023-08-30T03:21:04;100637.97;;;12.09;80.59
80712;BME280;70078;51.596;5.678;2023-08-30T03:23:31;100603.16;;;11.94;80.82
80712;BME280;70078;51.596;5.678;2023-08-30T03:25:57;100622.06;;;12.08;80.44
80712;BME280;70078;51.596;5.678;2023-08-30T03:28:23;100596.91;;;12.02;80.56
80712;BME280;70078;51.596;5.678;2023-08-30T03:30:48;100604.19;;;12.08;80.55
80712;BME280;70078;51.596;5.678;2023-08-30T03:33:13;100591.19;;;12.05;80.28
80712;BME280;70078;51.596;5.678;2023-08-30T03:35:39;100617.34;;;12.33;80.71
80712;BME280;70078;51.596;5.678;2023-08-30T03:38:04;100603.66;;;12.28;80.64
80712;BME280;70078;51.596;5.678;2023-08-30T03:40:32;100635.25;;;12.47;81.08
80712;BME280;70078;51.596;5.678;2023-08-30T03:42:58;100588.72;;;12.18;81.31
80712;BME280;70078;51.596;5.678;2023-08-30T03:45:23;100591.50;;;12.25;81.02
80712;BME280;70078;51.596;5.678;2023-08-30T03:47:48;100560.63;;;12.14;80.50
80712;BME280;70078;51.596;5.678;2023-08-30T03:50:14;100581.88;;;12.31;80.75
80712;BME280;70078;51.596;5.678;2023-08-30T03:52:39;100577.53;;;12.30;80.61
80712;BME280;70078;51.596;5.678;2023-08-30T03:55:05;100602.22;;;12.40;80.25
80712;BME280;70078;51.596;5.678;2023-08-30T03:57:30;100632.41;;;12.63;80.41
80712;BME280;70078;51.596;5.678;2023-08-30T03:59:56;100562.13;;;12.32;80.67
80712;BME280;70078;51.596;5.678;2023-08-30T04:02:21;100569.59;;;12.36;80.49
80712;BME280;70078;51.596;5.678;2023-08-30T04:04:47;100617.25;;;12.70;80.36
80712;BME280;70078;51.596;5.678;2023-08-30T04:07:15;100572.19;;;12.44;80.73
80712;BME280;70078;51.596;5.678;2023-08-30T04:09:41;100545.41;;;12.30;80.77
80712;BME280;70078;51.596;5.678;2023-08-30T04:12:06;100603.38;;;12.67;80.78
80712;BME280;70078;51.596;5.678;2023-08-30T04:14:32;100530.09;;;12.23;80.59
80712;BME280;70078;51.596;5.678;2023-08-30T04:16:57;100534.16;;;12.34;80.40
80712;BME280;70078;51.596;5.678;2023-08-30T04:19:23;100559.81;;;12.43;80.29
80712;BME280;70078;51.596;5.678;2023-08-30T04:21:48;100560.28;;;12.47;80.79
80712;BME280;70078;51.596;5.678;2023-08-30T04:24:14;100485.81;;;12.06;80.42
80712;BME280;70078;51.596;5.678;2023-08-30T04:26:40;100540.78;;;12.38;80.75
80712;BME280;70078;51.596;5.678;2023-08-30T04:29:08;100535.81;;;12.35;80.56
80712;BME280;70078;51.596;5.678;2023-08-30T04:31:34;100501.69;;;12.08;80.14
80712;BME280;70078;51.596;5.678;2023-08-30T04:34:01;100511.75;;;12.20;80.54
80712;BME280;70078;51.596;5.678;2023-08-30T04:36:27;100506.56;;;12.19;80.44
80712;BME280;70078;51.596;5.678;2023-08-30T04:38:53;100545.31;;;12.38;80.58
80712;BME280;70078;51.596;5.678;2023-08-30T04:41:19;100546.03;;;12.46;80.81
80712;BME280;70078;51.596;5.678;2023-08-30T04:43:46;100522.63;;;12.34;80.88
80712;BME280;70078;51.596;5.678;2023-08-30T04:46:13;100509.44;;;12.17;81.26
80712;BME280;70078;51.596;5.678;2023-08-30T04:48:45;100579.84;;;12.62;81.37
80712;BME280;70078;51.596;5.678;2023-08-30T04:51:14;100578.84;;;12.63;81.41
80712;BME280;70078;51.596;5.678;2023-08-30T04:53:39;100509.69;;;12.22;81.00
80712;BME280;70078;51.596;5.678;2023-08-30T04:56:13;100550.03;;;12.50;81.28
80712;BME280;70078;51.596;5.678;2023-08-30T04:58:41;100562.56;;;12.65;81.28
80712;BME280;70078;51.596;5.678;2023-08-30T05:01:07;100477.97;;;12.19;81.23
80712;BME280;70078;51.596;5.678;2023-08-30T05:03:33;100498.16;;;12.22;81.49
80712;BME280;70078;51.596;5.678;2023-08-30T05:05:59;100504.16;;;12.39;81.83
80712;BME280;70078;51.596;5.678;2023-08-30T05:08:27;100480.06;;;12.24;82.36
80712;BME280;70078;51.596;5.678;2023-08-30T05:10:56;100411.50;;;11.87;82.23
80712;BME280;70078;51.596;5.678;2023-08-30T05:13:21;100550.50;;;12.90;82.48
80712;BME280;70078;51.596;5.678;2023-08-30T05:15:47;100502.44;;;12.67;82.64
80712;BME280;70078;51.596;5.678;2023-08-30T05:18:12;100538.97;;;12.90;82.97
80712;BME280;70078;51.596;5.678;2023-08-30T05:20:37;100505.41;;;12.72;82.83
80712;BME280;70078;51.596;5.678;2023-08-30T05:23:03;100525.84;;;12.95;82.66
80712;BME280;70078;51.596;5.678;2023-08-30T05:25:28;100508.09;;;12.94;82.83
80712;BME280;70078;51.596;5.678;2023-08-30T05:27:53;100532.59;;;13.12;82.74
80712;BME280;70078;51.596;5.678;2023-08-30T05:30:19;100542.56;;;13.18;83.21
80712;BME280;70078;51.596;5.678;2023-08-30T05:32:44;100536.72;;;13.29;83.09
80712;BME280;70078;51.596;5.678;2023-08-30T05:35:10;100469.94;;;12.92;83.09
80712;BME280;70078;51.596;5.678;2023-08-30T05:37:35;100474.81;;;13.03;82.78
80712;BME280;70078;51.596;5.678;2023-08-30T05:40:00;100455.03;;;13.04;82.71
80712;BME280;70078;51.596;5.678;2023-08-30T05:42:26;100494.63;;;13.23;82.63
80712;BME280;70078;51.596;5.678;2023-08-30T05:44:53;100477.72;;;13.23;82.66
80712;BME280;70078;51.596;5.678;2023-08-30T05:47:21;100508.25;;;13.50;82.67
80712;BME280;70078;51.596;5.678;2023-08-30T05:49:46;100465.81;;;13.32;81.87
80712;BME280;70078;51.596;5.678;2023-08-30T05:52:11;100456.50;;;13.28;81.64
80712;BME280;70078;51.596;5.678;2023-08-30T05:54:37;100487.63;;;13.50;81.92
80712;BME280;70078;51.596;5.678;2023-08-30T05:57:02;100452.84;;;13.36;82.05
80712;BME280;70078;51.596;5.678;2023-08-30T05:59:28;100468.66;;;13.52;81.76
80712;BME280;70078;51.596;5.678;2023-08-30T06:01:53;100511.84;;;13.85;81.38
80712;BME280;70078;51.596;5.678;2023-08-30T06:04:18;100453.59;;;13.51;81.07
80712;BME280;70078;51.596;5.678;2023-08-30T06:06:45;100446.28;;;13.38;81.54
80712;BME280;70078;51.596;5.678;2023-08-30T06:09:10;100523.88;;;13.96;81.49
80712;BME280;70078;51.596;5.678;2023-08-30T06:11:37;100467.34;;;13.69;81.34
80712;BME280;70078;51.596;5.678;2023-08-30T06:14:02;100460.19;;;13.76;80.78
80712;BME280;70078;51.596;5.678;2023-08-30T06:16:28;100468.50;;;13.88;80.98
80712;BME280;70078;51.596;5.678;2023-08-30T06:18:53;100513.47;;;14.14;81.11
80712;BME280;70078;51.596;5.678;2023-08-30T06:21:19;100489.47;;;14.06;81.11
80712;BME280;70078;51.596;5.678;2023-08-30T06:23:44;100454.09;;;13.96;80.84
80712;BME280;70078;51.596;5.678;2023-08-30T06:26:09;100474.41;;;14.11;80.47
80712;BME280;70078;51.596;5.678;2023-08-30T06:28:35;100466.81;;;14.15;80.94
80712;BME280;70078;51.596;5.678;2023-08-30T06:31:00;100495.25;;;14.44;80.57
80712;BME280;70078;51.596;5.678;2023-08-30T06:33:25;100473.72;;;14.37;80.39
80712;BME280;70078;51.596;5.678;2023-08-30T06:35:51;100465.00;;;14.35;80.83
80712;BME280;70078;51.596;5.678;2023-08-30T06:38:18;100451.59;;;14.35;80.48
80712;BME280;70078;51.596;5.678;2023-08-30T06:40:44;100438.53;;;14.26;80.20
80712;BME280;70078;51.596;5.678;2023-08-30T06:43:10;100475.91;;;14.62;80.42
80712;BME280;70078;51.596;5.678;2023-08-30T06:45:35;100430.78;;;14.44;80.03
80712;BME280;70078;51.596;5.678;2023-08-30T06:48:00;100435.13;;;14.45;80.51
80712;BME280;70078;51.596;5.678;2023-08-30T06:50:26;100463.09;;;14.70;80.17
80712;BME280;70078;51.596;5.678;2023-08-30T06:52:51;100465.19;;;14.75;80.26
80712;BME280;70078;51.596;5.678;2023-08-30T06:55:16;100476.78;;;14.76;80.24
80712;BME280;70078;51.596;5.678;2023-08-30T06:57:47;100495.22;;;14.98;79.35
80712;BME280;70078;51.596;5.678;2023-08-30T07:00:13;100461.88;;;14.73;79.70
80712;BME280;70078;51.596;5.678;2023-08-30T07:02:38;100509.91;;;15.03;79.94
80712;BME280;70078;51.596;5.678;2023-08-30T07:05:04;100477.81;;;14.75;80.09
80712;BME280;70078;51.596;5.678;2023-08-30T07:07:30;100460.00;;;14.67;80.14
80712;BME280;70078;51.596;5.678;2023-08-30T07:09:56;100517.97;;;15.03;80.68
80712;BME280;70078;51.596;5.678;2023-08-30T07:12:21;100520.25;;;15.06;80.64
80712;BME280;70078;51.596;5.678;2023-08-30T07:14:47;100506.56;;;14.94;80.69
80712;BME280;70078;51.596;5.678;2023-08-30T07:17:12;100466.78;;;14.56;80.73
80712;BME280;70078;51.596;5.678;2023-08-30T07:19:38;100518.13;;;14.88;81.10
80712;BME280;70078;51.596;5.678;2023-08-30T07:22:03;100509.03;;;14.82;81.55
80712;BME280;70078;51.596;5.678;2023-08-30T07:24:29;100508.22;;;14.82;81.67
80712;BME280;70078;51.596;5.678;2023-08-30T07:26:54;100504.50;;;14.83;81.77
80712;BME280;70078;51.596;5.678;2023-08-30T07:29:20;100471.16;;;14.70;81.66
80712;BME280;70078;51.596;5.678;2023-08-30T07:31:45;100484.84;;;14.82;81.52
80712;BME280;70078;51.596;5.678;2023-08-30T07:34:10;100457.28;;;14.54;81.97
80712;BME280;70078;51.596;5.678;2023-08-30T07:36:36;100462.25;;;14.57;82.33
80712;BME280;70078;51.596;5.678;2023-08-30T07:39:02;100471.75;;;14.53;82.86
80712;BME280;70078;51.596;5.678;2023-08-30T07:41:27;100455.13;;;14.36;83.56
80712;BME280;70078;51.596;5.678;2023-08-30T07:43:52;100469.38;;;14.36;83.65
80712;BME280;70078;51.596;5.678;2023-08-30T07:46:18;100448.19;;;14.07;84.40
80712;BME280;70078;51.596;5.678;2023-08-30T07:48:43;100438.69;;;14.11;84.32
80712;BME280;70078;51.596;5.678;2023-08-30T07:51:08;100443.84;;;14.06;84.54
80712;BME280;70078;51.596;5.678;2023-08-30T07:53:34;100455.19;;;14.08;84.86
80712;BME280;70078;51.596;5.678;2023-08-30T07:55:59;100476.88;;;14.13;85.61
80712;BME280;70078;51.596;5.678;2023-08-30T07:58:24;100466.56;;;14.10;85.86
80712;BME280;70078;51.596;5.678;2023-08-30T08:00:53;100460.00;;;14.19;85.96
80712;BME280;70078;51.596;5.678;2023-08-30T08:03:20;100464.13;;;14.15;86.02
80712;BME280;70078;51.596;5.678;2023-08-30T08:05:45;100454.16;;;14.09;85.99
80712;BME280;70078;51.596;5.678;2023-08-30T08:08:11;100459.38;;;14.17;86.40
80712;BME280;70078;51.596;5.678;2023-08-30T08:10:36;100456.09;;;14.22;86.53
80712;BME280;70078;51.596;5.678;2023-08-30T08:13:02;100381.97;;;13.79;86.61
80712;BME280;70078;51.596;5.678;2023-08-30T08:15:29;100438.69;;;14.11;86.50
80712;BME280;70078;51.596;5.678;2023-08-30T08:17:56;100442.56;;;14.02;86.30
80712;BME280;70078;51.596;5.678;2023-08-30T08:20:21;100443.59;;;14.01;87.13
80712;BME280;70078;51.596;5.678;2023-08-30T08:22:47;100391.88;;;13.79;87.34
80712;BME280;70078;51.596;5.678;2023-08-30T08:25:12;100383.59;;;13.74;87.62
80712;BME280;70078;51.596;5.678;2023-08-30T08:27:37;100453.13;;;14.10;87.35
80712;BME280;70078;51.596;5.678;2023-08-30T08:30:04;100450.84;;;14.07;88.18
80712;BME280;70078;51.596;5.678;2023-08-30T08:32:29;100425.97;;;13.85;88.43
80712;BME280;70078;51.596;5.678;2023-08-30T08:34:56;100428.91;;;13.97;88.42
80712;BME280;70078;51.596;5.678;2023-08-30T08:37:21;100371.16;;;13.66;88.26
80712;BME280;70078;51.596;5.678;2023-08-30T08:39:46;100410.91;;;13.84;88.31
80712;BME280;70078;51.596;5.678;2023-08-30T08:42:13;100384.19;;;13.69;88.24
80712;BME280;70078;51.596;5.678;2023-08-30T08:44:39;100372.63;;;13.69;89.02
80712;BME280;70078;51.596;5.678;2023-08-30T08:47:06;100417.34;;;13.96;89.13
80712;BME280;70078;51.596;5.678;2023-08-30T08:49:32;100428.13;;;14.03;89.54
80712;BME280;70078;51.596;5.678;2023-08-30T08:51:57;100430.19;;;14.01;89.82
80712;BME280;70078;51.596;5.678;2023-08-30T08:54:24;100413.16;;;13.87;89.59
80712;BME280;70078;51.596;5.678;2023-08-30T08:56:50;100399.59;;;13.95;89.03
80712;BME280;70078;51.596;5.678;2023-08-30T08:59:16;100394.59;;;13.85;89.68
80712;BME280;70078;51.596;5.678;2023-08-30T09:01:41;100416.59;;;14.09;89.45
80712;BME280;70078;51.596;5.678;2023-08-30T09:04:08;100403.16;;;14.09;89.75
80712;BME280;70078;51.596;5.678;2023-08-30T09:06:34;100377.31;;;14.01;89.32
80712;BME280;70078;51.596;5.678;2023-08-30T09:09:01;100393.22;;;14.03;89.25
80712;BME280;70078;51.596;5.678;2023-08-30T09:11:28;100434.41;;;14.23;89.36
80712;BME280;70078;51.596;5.678;2023-08-30T09:13:53;100411.84;;;14.11;89.44
80712;BME280;70078;51.596;5.678;2023-08-30T09:16:19;100409.16;;;14.11;89.72
80712;BME280;70078;51.596;5.678;2023-08-30T09:18:44;100412.66;;;14.11;89.83
80712;BME280;70078;51.596;5.678;2023-08-30T09:21:10;100433.66;;;14.36;90.48
80712;BME280;70078;51.596;5.678;2023-08-30T09:23:36;100380.22;;;14.00;90.88
80712;BME280;70078;51.596;5.678;2023-08-30T09:26:03;100413.56;;;14.25;90.68
80712;BME280;70078;51.596;5.678;2023-08-30T09:28:29;100428.53;;;14.48;90.45
80712;BME280;70078;51.596;5.678;2023-08-30T09:30:57;100395.00;;;14.30;91.12
80712;BME280;70078;51.596;5.678;2023-08-30T09:33:33;100402.88;;;14.38;91.36
80712;BME280;70078;51.596;5.678;2023-08-30T09:35:59;100334.84;;;14.18;91.13
80712;BME280;70078;51.596;5.678;2023-08-30T09:38:24;100428.59;;;14.81;91.42
80712;BME280;70078;51.596;5.678;2023-08-30T09:40:51;100436.69;;;14.87;91.16
80712;BME280;70078;51.596;5.678;2023-08-30T09:43:20;100418.28;;;14.84;91.61
80712;BME280;70078;51.596;5.678;2023-08-30T09:45:50;100402.38;;;14.83;91.91
80712;BME280;70078;51.596;5.678;2023-08-30T09:48:21;100436.28;;;15.17;91.36
80712;BME280;70078;51.596;5.678;2023-08-30T09:50:52;100428.66;;;15.20;91.88
80712;BME280;70078;51.596;5.678;2023-08-30T09:53:20;100392.88;;;15.07;91.54
80712;BME280;70078;51.596;5.678;2023-08-30T09:55:48;100436.75;;;15.27;90.69
80712;BME280;70078;51.596;5.678;2023-08-30T09:58:14;100375.06;;;14.86;91.43
80712;BME280;70078;51.596;5.678;2023-08-30T10:00:41;100416.66;;;15.36;91.06
80712;BME280;70078;51.596;5.678;2023-08-30T10:03:07;100370.13;;;15.03;91.06
80712;BME280;70078;51.596;5.678;2023-08-30T10:05:35;100440.44;;;15.39;90.53
80712;BME280;70078;51.596;5.678;2023-08-30T10:08:00;100364.34;;;14.99;90.94
80712;BME280;70078;51.596;5.678;2023-08-30T10:10:27;100435.06;;;15.46;89.94
80712;BME280;70078;51.596;5.678;2023-08-30T10:12:55;100377.56;;;15.14;90.17
80712;BME280;70078;51.596;5.678;2023-08-30T10:15:21;100382.53;;;15.30;90.81
80712;BME280;70078;51.596;5.678;2023-08-30T10:17:52;100391.19;;;15.39;90.12
80712;BME280;70078;51.596;5.678;2023-08-30T10:20:19;100396.13;;;15.48;89.44
80712;BME280;70078;51.596;5.678;2023-08-30T10:22:46;100400.31;;;15.64;91.68
80712;BME280;70078;51.596;5.678;2023-08-30T10:25:16;100375.88;;;15.66;92.66
80712;BME280;70078;51.596;5.678;2023-08-30T10:27:46;100421.03;;;16.15;91.66
80712;BME280;70078;51.596;5.678;2023-08-30T10:30:12;100414.31;;;16.37;93.11
80712;BME280;70078;51.596;5.678;2023-08-30T10:32:40;100413.19;;;16.58;91.79
80712;BME280;70078;51.596;5.678;2023-08-30T10:35:05;100364.72;;;16.52;91.85
80712;BME280;70078;51.596;5.678;2023-08-30T10:37:30;100360.50;;;16.62;90.24
80712;BME280;70078;51.596;5.678;2023-08-30T10:40:00;100412.03;;;17.11;89.48
80712;BME280;70078;51.596;5.678;2023-08-30T10:42:28;100402.38;;;17.22;88.82
80712;BME280;70078;51.596;5.678;2023-08-30T10:47:31;100341.19;;;16.97;88.13
80712;BME280;70078;51.596;5.678;2023-08-30T10:50:00;100395.53;;;17.44;85.99
80712;BME280;70078;51.596;5.678;2023-08-30T10:52:29;100400.28;;;17.67;85.92
80712;BME280;70078;51.596;5.678;2023-08-30T10:55:05;100334.69;;;17.66;88.31
80712;BME280;70078;51.596;5.678;2023-08-30T10:57:32;100336.63;;;17.96;88.51
80712;BME280;70078;51.596;5.678;2023-08-30T11:02:47;100389.47;;;19.24;87.23
80712;BME280;70078;51.596;5.678;2023-08-30T11:05:14;100395.00;;;19.40;81.04
80712;BME280;70078;51.596;5.678;2023-08-30T11:07:40;100376.38;;;19.56;80.72
80712;BME280;70078;51.596;5.678;2023-08-30T11:10:06;100346.50;;;19.51;77.62
80712;BME280;70078;51.596;5.678;2023-08-30T11:12:31;100374.28;;;19.81;77.58
80712;BME280;70078;51.596;5.678;2023-08-30T11:14:57;100341.09;;;19.74;81.47
80712;BME280;70078;51.596;5.678;2023-08-30T11:17:22;100372.88;;;20.19;79.38
80712;BME280;70078;51.596;5.678;2023-08-30T11:19:51;100378.47;;;20.01;76.98
80712;BME280;70078;51.596;5.678;2023-08-30T11:22:22;100356.97;;;19.71;77.79
80712;BME280;70078;51.596;5.678;2023-08-30T11:24:48;100386.84;;;19.87;80.99
80712;BME280;70078;51.596;5.678;2023-08-30T11:27:17;100374.66;;;19.73;79.08
80712;BME280;70078;51.596;5.678;2023-08-30T11:29:43;100382.78;;;19.61;78.38
80712;BME280;70078;51.596;5.678;2023-08-30T11:32:08;100403.63;;;19.61;77.69
80712;BME280;70078;51.596;5.678;2023-08-30T11:34:33;100382.97;;;19.48;78.03
80712;BME280;70078;51.596;5.678;2023-08-30T11:36:59;100386.31;;;19.62;77.63
80712;BME280;70078;51.596;5.678;2023-08-30T11:39:28;100355.69;;;19.26;76.70
80712;BME280;70078;51.596;5.678;2023-08-30T11:41:53;100345.13;;;19.13;76.25
80712;BME280;70078;51.596;5.678;2023-08-30T11:44:19;100341.44;;;18.96;77.95
80712;BME280;70078;51.596;5.678;2023-08-30T11:46:44;100379.22;;;19.14;78.76
80712;BME280;70078;51.596;5.678;2023-08-30T11:49:10;100348.97;;;18.82;77.24
80712;BME280;70078;51.596;5.678;2023-08-30T11:51:36;100384.59;;;18.91;76.63
80712;BME280;70078;51.596;5.678;2023-08-30T11:54:02;100407.56;;;19.00;76.55
80712;BME280;70078;51.596;5.678;2023-08-30T11:56:29;100357.72;;;18.66;75.75
80712;BME280;70078;51.596;5.678;2023-08-30T11:58:54;100399.97;;;18.78;76.78
80712;BME280;70078;51.596;5.678;2023-08-30T12:01:20;100379.41;;;18.77;77.64
80712;BME280;70078;51.596;5.678;2023-08-30T12:03:45;100394.94;;;18.94;76.76
80712;BME280;70078;51.596;5.678;2023-08-30T12:06:15;100382.75;;;19.15;77.62
80712;BME280;70078;51.596;5.678;2023-08-30T12:08:41;100380.31;;;19.36;74.56
80712;BME280;70078;51.596;5.678;2023-08-30T12:11:17;100406.78;;;19.81;74.60
80712;BME280;70078;51.596;5.678;2023-08-30T12:13:43;100352.66;;;19.58;67.67
80712;BME280;70078;51.596;5.678;2023-08-30T12:16:15;100391.09;;;19.95;70.25
80712;BME280;70078;51.596;5.678;2023-08-30T12:18:41;100378.75;;;19.76;69.31
80712;BME280;70078;51.596;5.678;2023-08-30T12:21:07;100353.22;;;19.60;67.88
80712;BME280;70078;51.596;5.678;2023-08-30T12:23:33;100402.84;;;20.12;68.15
80712;BME280;70078;51.596;5.678;2023-08-30T12:28:28;100375.00;;;20.57;68.21
80712;BME280;70078;51.596;5.678;2023-08-30T12:30:54;100406.00;;;20.78;67.78
80712;BME280;70078;51.596;5.678;2023-08-30T12:33:20;100406.69;;;21.19;67.40
80712;BME280;70078;51.596;5.678;2023-08-30T12:35:45;100386.13;;;21.56;62.94
80712;BME280;70078;51.596;5.678;2023-08-30T12:38:11;100394.63;;;22.04;61.48
80712;BME280;70078;51.596;5.678;2023-08-30T12:40:47;100398.56;;;22.35;64.85
80712;BME280;70078;51.596;5.678;2023-08-30T12:43:13;100422.19;;;22.56;61.68
80712;BME280;70078;51.596;5.678;2023-08-30T12:45:42;100405.59;;;22.85;62.29
80712;BME280;70078;51.596;5.678;2023-08-30T12:48:08;100393.75;;;23.28;59.20
80712;BME280;70078;51.596;5.678;2023-08-30T12:50:38;100387.66;;;23.16;57.09
80712;BME280;70078;51.596;5.678;2023-08-30T12:53:04;100417.28;;;23.44;59.25
80712;BME280;70078;51.596;5.678;2023-08-30T12:55:30;100410.06;;;23.60;56.03
80712;BME280;70078;51.596;5.678;2023-08-30T12:57:55;100411.28;;;23.85;58.50
80712;BME280;70078;51.596;5.678;2023-08-30T13:00:21;100402.97;;;23.64;52.71